Flight Track Log - Related Links

Times and Time Zones

All times are in EDT time to prevent confusion due to time zone crossing. See the UPS1121 flight status page for this flight to view local times or setup timezone preferences in your user account.

Time Position Orientation Groundspeed Altitude Reporting Facility
EDT Latitude Longitude Course Direction KTS MPH feet Rate Location/Type
Wed 08:32:40 PM 42.7339 -73.8081 150° Southeast 165 190 1,500  Level Boston Center
Wed 08:33:22 PM 42.7008 -73.7819 150° Southeast 196 226 3,800 3,226 Climbing Boston Center
Wed 08:34:26 PM 42.6539 -73.7075 131° Southeast 265 305 7,200 3,242 Climbing Boston Center
Wed 08:35:26 PM 42.6108 -73.6361 129° Southeast 282 325 10,500 1,800 Climbing Boston Center
Wed 08:36:26 PM 42.5389 -73.5333 134° Southeast 312 359 10,800 250 Climbing Boston Center
Wed 08:37:26 PM 42.4731 -73.4394 134° Southeast 365 420 11,000 100 Climbing Boston Center
Wed 08:38:26 PM 42.3928 -73.3228 133° Southeast 380 437 11,000  Level Boston Center
Wed 08:38:41 PM 42.3722 -73.2972 137° Southeast 389 448 11,000  Level Boston Center
Wed 08:39:26 PM 42.3269 -73.2236 130° Southeast 385 443 11,000 -100 Level Boston Center
Wed 08:39:41 PM 42.3022 -73.1867 132° Southeast 385 443 10,900 -700 Descending Boston Center
Wed 08:40:26 PM 42.2692 -73.1022 118° Southeast 364 419 10,300 -740 Descending Boston Center
Wed 08:40:54 PM 42.2467 -73.0569 124° Southeast 319 367 10,000 -800 Descending Boston Center
Wed 08:41:26 PM 42.2342 -73.0150 112° Southeast 315 362 9,500 -1,869 Descending Boston Center
Wed 08:41:55 PM 42.2094 -72.9614 122° Southeast 288 331 8,100 -2,700 Descending Boston Center
Wed 08:42:26 PM 42.1911 -72.9136 117° Southeast 282 325 6,800 -1,800 Descending Boston Center
Wed 08:42:55 PM 42.1725 -72.8714 121° Southeast 275 316 6,300 -1,100 Descending Boston Center
Wed 08:43:26 PM 42.1581 -72.8267 114° Southeast 270 311 5,700 -1,279 Descending Boston Center
Wed 08:43:56 PM 42.1394 -72.7844 121° Southeast 259 298 5,000 -1,500 Descending Boston Center
Wed 08:44:26 PM 42.1250 -72.7425 115° Southeast 258 297 4,200 -1,377 Descending Boston Center
Wed 08:44:57 PM 42.1064 -72.6975 119° Southeast 257 296 3,600 -1,500 Descending Boston Center
Wed 08:45:26 PM 42.0917 -72.6583 117° Southeast 258 297 2,700 -1,500 Descending Boston Center
Wed 08:45:57 PM 42.0708 -72.6164 124° Southeast 250 288 2,100 -600 Descending Boston Center
Wed 08:46:26 PM 42.0522 -72.5911 135° Southeast 243 280 2,100  Level Boston Center
Wed 08:46:52 PM 42.0294 -72.5911 180° South 188 216 2,100 -300 Level Boston Center
Wed 08:47:26 PM 42.0064 -72.6050 204° Southwest 169 194 1,800 -600 Descending Boston Center
Wed 08:47:52 PM 41.9917 -72.6161 209° Southwest 156 180 1,500 -600 Descending Boston Center
Wed 08:48:26 PM 41.9856 -72.6272 234° Southwest 140 161 1,200 -689 Descending Boston Center
Wed 08:48:53 PM 41.9689 -72.6467 221° Southwest 110 127 800 -600 Descending Boston Center
Wed 08:49:26 PM 41.9625 -72.6578 232° Southwest 128 147 600 -364 Descending Boston Center
Wed 08:53:00 PM 41.9392 -72.6834 20° North  Level Estimated
Wed 09:00:00 PM 41.9333 -72.6833 20° North  Level FlightAware Approximate
Wed 09:01:00 PM 41.9392 -72.6834 20° North  Level Estimated
Wed 09:02:00 PM 41.9333 -72.6833 20° North  Level FlightAware Approximate

Login

Don't have an account? Register now (free) for customized features, flight alerts, and more!